sensor_id;sensor_type;location;lat;lon;timestamp;pressure;altitude;pressure_sealevel;temperature;humidity
28927;BME280;16038;47.692;9.400;2023-07-13T00:01:48;96651.09;;;17.81;100.00
28927;BME280;16038;47.692;9.400;2023-07-13T00:04:19;96656.78;;;17.70;100.00
28927;BME280;16038;47.692;9.400;2023-07-13T00:06:46;96665.97;;;17.63;100.00
28927;BME280;16038;47.692;9.400;2023-07-13T00:09:16;96673.88;;;17.65;100.00
28927;BME280;16038;47.692;9.400;2023-07-13T00:11:42;96670.75;;;17.59;100.00
28927;BME280;16038;47.692;9.400;2023-07-13T00:14:08;96674.66;;;17.65;100.00
28927;BME280;16038;47.692;9.400;2023-07-13T00:16:36;96681.28;;;17.71;100.00
28927;BME280;16038;47.692;9.400;2023-07-13T00:19:02;96681.72;;;17.70;100.00
28927;BME280;16038;47.692;9.400;2023-07-13T00:21:27;96692.13;;;17.58;100.00
28927;BME280;16038;47.692;9.400;2023-07-13T00:23:53;96677.13;;;17.56;100.00
28927;BME280;16038;47.692;9.400;2023-07-13T00:26:18;96682.56;;;17.67;100.00
28927;BME280;16038;47.692;9.400;2023-07-13T00:28:44;96674.56;;;17.72;100.00
28927;BME280;16038;47.692;9.400;2023-07-13T00:31:11;96680.97;;;17.66;100.00
28927;BME280;16038;47.692;9.400;2023-07-13T00:33:37;96679.81;;;17.63;100.00
28927;BME280;16038;47.692;9.400;2023-07-13T00:36:03;96688.06;;;17.70;100.00
28927;BME280;16038;47.692;9.400;2023-07-13T00:38:29;96680.44;;;17.78;100.00
28927;BME280;16038;47.692;9.400;2023-07-13T00:40:55;96683.56;;;17.80;100.00
28927;BME280;16038;47.692;9.400;2023-07-13T00:43:23;96680.38;;;17.82;100.00
28927;BME280;16038;47.692;9.400;2023-07-13T00:48:26;96682.31;;;17.88;100.00
28927;BME280;16038;47.692;9.400;2023-07-13T00:50:55;96680.78;;;17.80;100.00
28927;BME280;16038;47.692;9.400;2023-07-13T00:53:22;96680.81;;;17.46;100.00
28927;BME280;16038;47.692;9.400;2023-07-13T00:55:51;96674.56;;;17.00;100.00
28927;BME280;16038;47.692;9.400;2023-07-13T00:58:19;96676.47;;;16.54;100.00
28927;BME280;16038;47.692;9.400;2023-07-13T01:00:45;96684.81;;;16.47;100.00
28927;BME280;16038;47.692;9.400;2023-07-13T01:03:12;96667.16;;;16.34;100.00
28927;BME280;16038;47.692;9.400;2023-07-13T01:05:37;96673.50;;;16.31;100.00
28927;BME280;16038;47.692;9.400;2023-07-13T01:08:04;96669.13;;;16.37;100.00
28927;BME280;16038;47.692;9.400;2023-07-13T01:10:31;96666.31;;;16.44;100.00
28927;BME280;16038;47.692;9.400;2023-07-13T01:13:10;96668.63;;;16.49;100.00
28927;BME280;16038;47.692;9.400;2023-07-13T01:15:39;96672.00;;;16.71;100.00
28927;BME280;16038;47.692;9.400;2023-07-13T01:18:09;96665.56;;;16.89;100.00
28927;BME280;16038;47.692;9.400;2023-07-13T01:20:36;96667.00;;;17.04;100.00
28927;BME280;16038;47.692;9.400;2023-07-13T01:23:06;96661.81;;;17.10;100.00
28927;BME280;16038;47.692;9.400;2023-07-13T01:25:34;96664.34;;;16.93;100.00
28927;BME280;16038;47.692;9.400;2023-07-13T01:28:00;96678.16;;;16.93;100.00
28927;BME280;16038;47.692;9.400;2023-07-13T01:30:25;96671.75;;;17.04;100.00
28927;BME280;16038;47.692;9.400;2023-07-13T01:32:51;96666.28;;;16.96;100.00
28927;BME280;16038;47.692;9.400;2023-07-13T01:35:16;96671.53;;;16.87;100.00
28927;BME280;16038;47.692;9.400;2023-07-13T01:37:42;96669.88;;;16.93;100.00
28927;BME280;16038;47.692;9.400;2023-07-13T01:40:08;96665.06;;;17.01;100.00
28927;BME280;16038;47.692;9.400;2023-07-13T01:42:34;96668.13;;;17.10;100.00
28927;BME280;16038;47.692;9.400;2023-07-13T01:44:59;96669.34;;;17.09;100.00
28927;BME280;16038;47.692;9.400;2023-07-13T01:47:24;96663.97;;;16.91;100.00
28927;BME280;16038;47.692;9.400;2023-07-13T01:49:51;96674.69;;;16.82;100.00
28927;BME280;16038;47.692;9.400;2023-07-13T01:52:17;96669.16;;;16.82;100.00
28927;BME280;16038;47.692;9.400;2023-07-13T01:54:42;96651.28;;;16.94;100.00
28927;BME280;16038;47.692;9.400;2023-07-13T01:57:08;96654.59;;;16.74;100.00
28927;BME280;16038;47.692;9.400;2023-07-13T01:59:33;96651.13;;;16.63;100.00
28927;BME280;16038;47.692;9.400;2023-07-13T02:01:59;96650.59;;;16.30;100.00
28927;BME280;16038;47.692;9.400;2023-07-13T02:04:24;96642.84;;;16.11;100.00
28927;BME280;16038;47.692;9.400;2023-07-13T02:06:50;96640.13;;;16.03;100.00
28927;BME280;16038;47.692;9.400;2023-07-13T02:09:15;96638.97;;;15.97;100.00
28927;BME280;16038;47.692;9.400;2023-07-13T02:11:40;96650.44;;;15.96;100.00
28927;BME280;16038;47.692;9.400;2023-07-13T02:14:06;96650.41;;;15.99;100.00
28927;BME280;16038;47.692;9.400;2023-07-13T02:16:31;96646.03;;;16.02;100.00
28927;BME280;16038;47.692;9.400;2023-07-13T02:18:57;96651.13;;;16.07;100.00
28927;BME280;16038;47.692;9.400;2023-07-13T02:21:23;96646.69;;;16.20;100.00
28927;BME280;16038;47.692;9.400;2023-07-13T02:23:49;96640.75;;;16.25;100.00
28927;BME280;16038;47.692;9.400;2023-07-13T02:26:15;96648.25;;;16.25;100.00
28927;BME280;16038;47.692;9.400;2023-07-13T02:28:41;96655.69;;;16.35;100.00
28927;BME280;16038;47.692;9.400;2023-07-13T02:31:12;96657.09;;;16.58;100.00
28927;BME280;16038;47.692;9.400;2023-07-13T02:33:38;96661.00;;;16.64;100.00
28927;BME280;16038;47.692;9.400;2023-07-13T02:36:04;96667.63;;;16.74;100.00
28927;BME280;16038;47.692;9.400;2023-07-13T02:38:31;96664.44;;;16.79;100.00
28927;BME280;16038;47.692;9.400;2023-07-13T02:40:59;96651.75;;;16.81;100.00
28927;BME280;16038;47.692;9.400;2023-07-13T02:43:25;96671.94;;;16.86;100.00
28927;BME280;16038;47.692;9.400;2023-07-13T02:45:50;96677.44;;;16.89;100.00
28927;BME280;16038;47.692;9.400;2023-07-13T02:48:16;96682.91;;;16.96;100.00
28927;BME280;16038;47.692;9.400;2023-07-13T02:50:41;96684.00;;;17.03;100.00
28927;BME280;16038;47.692;9.400;2023-07-13T02:53:07;96680.00;;;17.11;100.00
28927;BME280;16038;47.692;9.400;2023-07-13T02:55:32;96680.66;;;17.22;100.00
28927;BME280;16038;47.692;9.400;2023-07-13T02:57:57;96677.81;;;17.29;100.00
28927;BME280;16038;47.692;9.400;2023-07-13T03:00:23;96675.78;;;17.33;100.00
28927;BME280;16038;47.692;9.400;2023-07-13T03:02:49;96677.72;;;17.40;100.00
28927;BME280;16038;47.692;9.400;2023-07-13T03:05:15;96681.22;;;17.44;100.00
28927;BME280;16038;47.692;9.400;2023-07-13T03:07:41;96685.97;;;17.44;100.00
28927;BME280;16038;47.692;9.400;2023-07-13T03:10:08;96690.56;;;17.19;100.00
28927;BME280;16038;47.692;9.400;2023-07-13T03:12:33;96687.19;;;17.01;100.00
28927;BME280;16038;47.692;9.400;2023-07-13T03:14:58;96676.25;;;16.87;100.00
28927;BME280;16038;47.692;9.400;2023-07-13T03:17:24;96676.34;;;16.72;100.00
28927;BME280;16038;47.692;9.400;2023-07-13T03:19:49;96676.03;;;16.63;100.00
28927;BME280;16038;47.692;9.400;2023-07-13T03:22:19;96677.97;;;16.66;100.00
28927;BME280;16038;47.692;9.400;2023-07-13T03:24:45;96681.91;;;16.69;100.00
28927;BME280;16038;47.692;9.400;2023-07-13T03:27:11;96690.13;;;16.76;100.00
28927;BME280;16038;47.692;9.400;2023-07-13T03:29:36;96690.06;;;16.87;100.00
28927;BME280;16038;47.692;9.400;2023-07-13T03:32:02;96685.66;;;16.96;100.00
28927;BME280;16038;47.692;9.400;2023-07-13T03:34:27;96691.72;;;16.77;100.00
28927;BME280;16038;47.692;9.400;2023-07-13T03:36:56;96679.94;;;16.69;100.00
28927;BME280;16038;47.692;9.400;2023-07-13T03:39:22;96690.97;;;16.73;100.00
28927;BME280;16038;47.692;9.400;2023-07-13T03:41:47;96698.03;;;16.77;100.00
28927;BME280;16038;47.692;9.400;2023-07-13T03:44:13;96697.16;;;16.91;100.00
28927;BME280;16038;47.692;9.400;2023-07-13T03:46:38;96702.25;;;16.96;100.00
28927;BME280;16038;47.692;9.400;2023-07-13T03:49:05;96690.81;;;16.94;100.00
28927;BME280;16038;47.692;9.400;2023-07-13T03:51:30;96695.53;;;16.94;100.00
28927;BME280;16038;47.692;9.400;2023-07-13T03:53:56;96700.38;;;16.82;100.00
28927;BME280;16038;47.692;9.400;2023-07-13T03:56:22;96705.50;;;16.88;100.00
28927;BME280;16038;47.692;9.400;2023-07-13T03:58:50;96697.22;;;16.84;100.00
28927;BME280;16038;47.692;9.400;2023-07-13T04:01:18;96702.84;;;16.70;100.00
28927;BME280;16038;47.692;9.400;2023-07-13T04:03:44;96706.00;;;16.68;100.00
28927;BME280;16038;47.692;9.400;2023-07-13T04:06:17;96706.75;;;16.72;100.00
28927;BME280;16038;47.692;9.400;2023-07-13T04:08:47;96713.00;;;16.87;100.00
28927;BME280;16038;47.692;9.400;2023-07-13T04:11:13;96710.56;;;16.96;100.00
28927;BME280;16038;47.692;9.400;2023-07-13T04:13:39;96706.25;;;16.92;100.00
28927;BME280;16038;47.692;9.400;2023-07-13T04:16:05;96707.00;;;16.92;100.00
28927;BME280;16038;47.692;9.400;2023-07-13T04:18:30;96702.25;;;16.96;100.00
28927;BME280;16038;47.692;9.400;2023-07-13T04:20:55;96702.69;;;16.91;100.00
28927;BME280;16038;47.692;9.400;2023-07-13T04:23:21;96703.47;;;16.92;100.00
28927;BME280;16038;47.692;9.400;2023-07-13T04:25:48;96711.38;;;16.93;100.00
28927;BME280;16038;47.692;9.400;2023-07-13T04:28:15;96713.75;;;16.91;100.00
28927;BME280;16038;47.692;9.400;2023-07-13T04:30:42;96717.56;;;17.08;100.00
28927;BME280;16038;47.692;9.400;2023-07-13T04:33:08;96722.19;;;17.22;100.00
28927;BME280;16038;47.692;9.400;2023-07-13T04:35:34;96716.91;;;17.35;100.00
28927;BME280;16038;47.692;9.400;2023-07-13T04:38:00;96714.47;;;17.41;100.00
28927;BME280;16038;47.692;9.400;2023-07-13T04:40:27;96722.78;;;17.41;100.00
28927;BME280;16038;47.692;9.400;2023-07-13T04:42:53;96720.28;;;17.53;100.00
28927;BME280;16038;47.692;9.400;2023-07-13T04:45:19;96727.59;;;17.71;100.00
28927;BME280;16038;47.692;9.400;2023-07-13T04:47:44;96728.34;;;17.75;100.00
28927;BME280;16038;47.692;9.400;2023-07-13T04:50:13;96730.44;;;17.64;100.00
28927;BME280;16038;47.692;9.400;2023-07-13T04:52:44;96738.44;;;17.58;100.00
28927;BME280;16038;47.692;9.400;2023-07-13T04:55:09;96735.13;;;17.70;100.00
28927;BME280;16038;47.692;9.400;2023-07-13T04:57:34;96734.97;;;17.85;100.00
28927;BME280;16038;47.692;9.400;2023-07-13T05:00:00;96738.78;;;17.98;100.00
28927;BME280;16038;47.692;9.400;2023-07-13T05:02:27;96737.06;;;18.11;100.00
28927;BME280;16038;47.692;9.400;2023-07-13T05:04:53;96732.34;;;18.08;100.00
28927;BME280;16038;47.692;9.400;2023-07-13T05:07:18;96736.97;;;18.19;100.00
28927;BME280;16038;47.692;9.400;2023-07-13T05:09:44;96731.47;;;18.15;100.00
28927;BME280;16038;47.692;9.400;2023-07-13T05:12:10;96731.28;;;18.29;100.00
28927;BME280;16038;47.692;9.400;2023-07-13T05:14:36;96738.38;;;18.00;100.00
28927;BME280;16038;47.692;9.400;2023-07-13T05:17:02;96743.91;;;18.00;100.00
28927;BME280;16038;47.692;9.400;2023-07-13T05:19:27;96745.59;;;17.93;100.00
28927;BME280;16038;47.692;9.400;2023-07-13T05:21:53;96752.22;;;18.00;100.00
28927;BME280;16038;47.692;9.400;2023-07-13T05:24:18;96753.00;;;18.00;100.00
28927;BME280;16038;47.692;9.400;2023-07-13T05:26:44;96753.50;;;17.91;100.00
28927;BME280;16038;47.692;9.400;2023-07-13T05:29:10;96748.03;;;17.84;100.00
28927;BME280;16038;47.692;9.400;2023-07-13T05:31:36;96752.94;;;17.69;100.00
28927;BME280;16038;47.692;9.400;2023-07-13T05:34:01;96766.16;;;17.92;100.00
28927;BME280;16038;47.692;9.400;2023-07-13T05:36:27;96770.19;;;18.22;100.00
28927;BME280;16038;47.692;9.400;2023-07-13T05:38:52;96765.53;;;18.43;100.00
28927;BME280;16038;47.692;9.400;2023-07-13T05:41:18;96762.84;;;18.66;100.00
28927;BME280;16038;47.692;9.400;2023-07-13T05:43:43;96769.22;;;18.90;100.00
28927;BME280;16038;47.692;9.400;2023-07-13T05:46:09;96780.00;;;19.12;100.00
28927;BME280;16038;47.692;9.400;2023-07-13T05:48:34;96774.16;;;19.30;100.00
28927;BME280;16038;47.692;9.400;2023-07-13T05:51:01;96773.91;;;19.44;100.00
28927;BME280;16038;47.692;9.400;2023-07-13T05:53:26;96780.91;;;19.53;100.00
28927;BME280;16038;47.692;9.400;2023-07-13T05:55:54;96781.06;;;19.65;100.00
28927;BME280;16038;47.692;9.400;2023-07-13T05:58:20;96799.16;;;19.77;100.00
28927;BME280;16038;47.692;9.400;2023-07-13T06:00:46;96795.66;;;19.93;100.00
28927;BME280;16038;47.692;9.400;2023-07-13T06:03:12;96794.03;;;20.16;100.00
28927;BME280;16038;47.692;9.400;2023-07-13T06:05:38;96789.69;;;20.35;100.00
28927;BME280;16038;47.692;9.400;2023-07-13T06:08:05;96799.22;;;20.54;100.00
28927;BME280;16038;47.692;9.400;2023-07-13T06:10:35;96800.78;;;20.55;100.00
28927;BME280;16038;47.692;9.400;2023-07-13T06:13:01;96809.63;;;20.50;100.00
28927;BME280;16038;47.692;9.400;2023-07-13T06:15:27;96808.94;;;20.25;100.00
28927;BME280;16038;47.692;9.400;2023-07-13T06:17:52;96801.97;;;20.17;100.00
28927;BME280;16038;47.692;9.400;2023-07-13T06:20:18;96809.00;;;20.22;100.00
28927;BME280;16038;47.692;9.400;2023-07-13T06:22:43;96806.47;;;20.31;100.00
28927;BME280;16038;47.692;9.400;2023-07-13T06:25:08;96814.06;;;20.07;100.00
28927;BME280;16038;47.692;9.400;2023-07-13T06:27:34;96822.75;;;20.09;100.00
28927;BME280;16038;47.692;9.400;2023-07-13T06:29:59;96824.56;;;19.99;100.00
28927;BME280;16038;47.692;9.400;2023-07-13T06:32:25;96820.59;;;19.97;100.00
28927;BME280;16038;47.692;9.400;2023-07-13T06:34:51;96824.84;;;20.05;100.00
28927;BME280;16038;47.692;9.400;2023-07-13T06:37:17;96830.19;;;19.96;100.00
28927;BME280;16038;47.692;9.400;2023-07-13T06:39:43;96830.66;;;19.91;100.00
28927;BME280;16038;47.692;9.400;2023-07-13T06:42:08;96842.41;;;19.78;100.00
28927;BME280;16038;47.692;9.400;2023-07-13T06:44:33;96837.06;;;19.88;100.00
28927;BME280;16038;47.692;9.400;2023-07-13T06:46:59;96841.09;;;20.07;100.00
28927;BME280;16038;47.692;9.400;2023-07-13T06:49:24;96835.13;;;20.08;100.00
28927;BME280;16038;47.692;9.400;2023-07-13T06:51:50;96835.66;;;19.99;100.00
28927;BME280;16038;47.692;9.400;2023-07-13T06:54:15;96841.22;;;19.99;100.00
28927;BME280;16038;47.692;9.400;2023-07-13T06:56:41;96838.38;;;20.03;100.00
28927;BME280;16038;47.692;9.400;2023-07-13T06:59:06;96838.94;;;19.94;100.00
28927;BME280;16038;47.692;9.400;2023-07-13T07:01:31;96847.69;;;19.93;100.00
28927;BME280;16038;47.692;9.400;2023-07-13T07:03:57;96850.41;;;19.96;100.00
28927;BME280;16038;47.692;9.400;2023-07-13T07:06:22;96856.31;;;19.98;100.00
28927;BME280;16038;47.692;9.400;2023-07-13T07:08:49;96855.13;;;19.99;100.00
28927;BME280;16038;47.692;9.400;2023-07-13T07:11:19;96864.84;;;19.88;100.00
28927;BME280;16038;47.692;9.400;2023-07-13T07:13:45;96868.31;;;19.95;100.00
28927;BME280;16038;47.692;9.400;2023-07-13T07:16:10;96874.94;;;20.01;100.00
28927;BME280;16038;47.692;9.400;2023-07-13T07:18:36;96879.25;;;20.06;100.00
28927;BME280;16038;47.692;9.400;2023-07-13T07:21:01;96886.78;;;20.05;100.00
28927;BME280;16038;47.692;9.400;2023-07-13T07:23:27;96879.66;;;20.04;100.00
28927;BME280;16038;47.692;9.400;2023-07-13T07:25:52;96884.81;;;20.06;100.00
28927;BME280;16038;47.692;9.400;2023-07-13T07:28:18;96883.03;;;20.16;100.00
28927;BME280;16038;47.692;9.400;2023-07-13T07:30:47;96880.59;;;20.18;100.00
28927;BME280;16038;47.692;9.400;2023-07-13T07:33:14;96881.75;;;20.20;100.00
28927;BME280;16038;47.692;9.400;2023-07-13T07:35:40;96884.16;;;20.18;100.00
28927;BME280;16038;47.692;9.400;2023-07-13T07:38:05;96891.72;;;20.18;100.00
28927;BME280;16038;47.692;9.400;2023-07-13T07:40:31;96888.66;;;20.12;100.00
28927;BME280;16038;47.692;9.400;2023-07-13T07:42:57;96886.97;;;19.95;100.00
28927;BME280;16038;47.692;9.400;2023-07-13T07:45:23;96890.81;;;19.81;100.00
28927;BME280;16038;47.692;9.400;2023-07-13T07:47:48;96894.88;;;19.96;100.00
28927;BME280;16038;47.692;9.400;2023-07-13T07:50:14;96894.22;;;20.12;100.00
28927;BME280;16038;47.692;9.400;2023-07-13T07:52:39;96902.06;;;20.17;100.00
28927;BME280;16038;47.692;9.400;2023-07-13T07:55:06;96902.56;;;20.12;100.00
28927;BME280;16038;47.692;9.400;2023-07-13T07:57:32;96900.84;;;20.18;100.00
28927;BME280;16038;47.692;9.400;2023-07-13T07:59:57;96904.75;;;20.01;100.00
28927;BME280;16038;47.692;9.400;2023-07-13T08:02:24;96906.13;;;19.89;100.00
28927;BME280;16038;47.692;9.400;2023-07-13T08:04:50;96898.56;;;19.39;100.00
28927;BME280;16038;47.692;9.400;2023-07-13T08:07:15;96904.06;;;19.42;100.00
28927;BME280;16038;47.692;9.400;2023-07-13T08:09:40;96905.06;;;19.56;100.00
28927;BME280;16038;47.692;9.400;2023-07-13T08:12:06;96903.88;;;19.80;100.00
28927;BME280;16038;47.692;9.400;2023-07-13T08:14:32;96915.69;;;19.88;100.00
28927;BME280;16038;47.692;9.400;2023-07-13T08:16:57;96912.22;;;20.04;100.00
28927;BME280;16038;47.692;9.400;2023-07-13T08:19:24;96914.53;;;20.29;100.00
28927;BME280;16038;47.692;9.400;2023-07-13T08:21:49;96914.66;;;20.46;100.00
28927;BME280;16038;47.692;9.400;2023-07-13T08:24:15;96910.22;;;20.48;100.00
28927;BME280;16038;47.692;9.400;2023-07-13T08:26:40;96913.06;;;20.44;100.00
28927;BME280;16038;47.692;9.400;2023-07-13T08:29:06;96909.38;;;20.51;100.00
28927;BME280;16038;47.692;9.400;2023-07-13T08:31:31;96910.72;;;20.43;100.00
28927;BME280;16038;47.692;9.400;2023-07-13T08:33:57;96915.84;;;20.44;100.00
28927;BME280;16038;47.692;9.400;2023-07-13T08:36:22;96916.69;;;20.41;100.00
28927;BME280;16038;47.692;9.400;2023-07-13T08:38:47;96909.03;;;20.49;100.00
28927;BME280;16038;47.692;9.400;2023-07-13T08:41:17;96908.69;;;20.67;100.00
28927;BME280;16038;47.692;9.400;2023-07-13T08:43:48;96908.56;;;21.11;99.93
28927;BME280;16038;47.692;9.400;2023-07-13T08:46:19;96907.88;;;22.38;100.00
28927;BME280;16038;47.692;9.400;2023-07-13T08:48:52;96913.47;;;23.22;86.81
28927;BME280;16038;47.692;9.400;2023-07-13T08:51:24;96917.06;;;23.61;83.47
28927;BME280;16038;47.692;9.400;2023-07-13T08:53:57;96934.94;;;24.94;74.59
28927;BME280;16038;47.692;9.400;2023-07-13T08:56:25;96936.97;;;25.97;64.75
28927;BME280;16038;47.692;9.400;2023-07-13T08:58:58;96942.94;;;26.36;59.81
28927;BME280;16038;47.692;9.400;2023-07-13T09:01:45;96936.25;;;26.15;58.13
28927;BME280;16038;47.692;9.400;2023-07-13T09:04:19;96935.94;;;26.59;54.56
28927;BME280;16038;47.692;9.400;2023-07-13T09:09:31;96932.69;;;26.88;54.15
28927;BME280;16038;47.692;9.400;2023-07-13T09:12:09;96938.72;;;26.13;51.49
28927;BME280;16038;47.692;9.400;2023-07-13T09:14:49;96935.81;;;26.91;47.07
28927;BME280;16038;47.692;9.400;2023-07-13T09:17:22;96940.44;;;27.64;44.95
28927;BME280;16038;47.692;9.400;2023-07-13T09:19:56;96933.81;;;27.76;46.20
28927;BME280;16038;47.692;9.400;2023-07-13T09:22:24;96927.31;;;28.28;46.59
28927;BME280;16038;47.692;9.400;2023-07-13T09:25:02;96938.31;;;26.70;45.07
28927;BME280;16038;47.692;9.400;2023-07-13T09:27:39;96937.84;;;25.75;49.64
28927;BME280;16038;47.692;9.400;2023-07-13T09:32:50;96952.59;;;27.27;43.36
28927;BME280;16038;47.692;9.400;2023-07-13T09:35:21;96946.28;;;28.18;41.45
28927;BME280;16038;47.692;9.400;2023-07-13T09:37:47;96951.81;;;26.16;41.83
28927;BME280;16038;47.692;9.400;2023-07-13T09:40:28;96942.31;;;22.90;49.69
28927;BME280;16038;47.692;9.400;2023-07-13T09:42:56;96933.47;;;24.46;50.43
28927;BME280;16038;47.692;9.400;2023-07-13T09:45:33;96946.31;;;24.56;46.71
28927;BME280;16038;47.692;9.400;2023-07-13T09:48:04;96943.25;;;24.63;49.55
28927;BME280;16038;47.692;9.400;2023-07-13T09:50:30;96941.47;;;25.94;46.41
28927;BME280;16038;47.692;9.400;2023-07-13T09:52:55;96941.69;;;26.00;45.65
28927;BME280;16038;47.692;9.400;2023-07-13T09:55:29;96951.88;;;26.35;43.84
28927;BME280;16038;47.692;9.400;2023-07-13T09:57:55;96940.66;;;26.81;45.09
28927;BME280;16038;47.692;9.400;2023-07-13T10:00:28;96947.84;;;26.82;43.67
28927;BME280;16038;47.692;9.400;2023-07-13T10:03:14;96953.09;;;26.33;45.43
28927;BME280;16038;47.692;9.400;2023-07-13T10:05:44;96962.16;;;26.47;44.92
28927;BME280;16038;47.692;9.400;2023-07-13T10:08:29;96955.97;;;24.77;47.47
28927;BME280;16038;47.692;9.400;2023-07-13T10:11:29;96945.28;;;22.41;55.03
28927;BME280;16038;47.692;9.400;2023-07-13T10:14:00;96939.56;;;22.15;57.45
28927;BME280;16038;47.692;9.400;2023-07-13T10:16:33;96935.94;;;21.32;63.17
28927;BME280;16038;47.692;9.400;2023-07-13T10:19:23;96937.78;;;22.67;62.68
28927;BME280;16038;47.692;9.400;2023-07-13T10:21:54;96932.03;;;23.93;58.59
28927;BME280;16038;47.692;9.400;2023-07-13T10:29:35;96942.34;;;24.31;53.73
28927;BME280;16038;47.692;9.400;2023-07-13T10:32:07;96940.91;;;24.27;54.29
28927;BME280;16038;47.692;9.400;2023-07-13T10:34:34;96940.56;;;23.90;59.92
28927;BME280;16038;47.692;9.400;2023-07-13T10:37:01;96936.19;;;23.37;60.99
28927;BME280;16038;47.692;9.400;2023-07-13T10:39:27;96939.16;;;23.04;63.47
28927;BME280;16038;47.692;9.400;2023-07-13T10:41:55;96930.16;;;22.84;62.82
28927;BME280;16038;47.692;9.400;2023-07-13T10:44:26;96939.81;;;22.66;63.87
28927;BME280;16038;47.692;9.400;2023-07-13T10:46:57;96933.06;;;22.51;66.17
28927;BME280;16038;47.692;9.400;2023-07-13T10:49:24;96941.91;;;22.62;67.14
28927;BME280;16038;47.692;9.400;2023-07-13T10:51:52;96945.81;;;22.94;68.19
28927;BME280;16038;47.692;9.400;2023-07-13T10:54:26;96950.81;;;22.86;69.14
28927;BME280;16038;47.692;9.400;2023-07-13T10:57:07;96946.34;;;22.60;67.74
28927;BME280;16038;47.692;9.400;2023-07-13T10:59:34;96953.06;;;22.33;68.90
28927;BME280;16038;47.692;9.400;2023-07-13T11:04:46;96937.47;;;22.78;69.85
28927;BME280;16038;47.692;9.400;2023-07-13T11:07:52;96935.69;;;23.13;67.26
28927;BME280;16038;47.692;9.400;2023-07-13T11:10:54;96933.41;;;23.37;61.91
28927;BME280;16038;47.692;9.400;2023-07-13T11:13:55;96938.75;;;23.83;58.26
28927;BME280;16038;47.692;9.400;2023-07-13T11:27:35;96938.13;;;24.61;56.06
28927;BME280;16038;47.692;9.400;2023-07-13T11:30:24;96940.16;;;24.48;57.69
28927;BME280;16038;47.692;9.400;2023-07-13T11:32:52;96936.69;;;24.09;56.95
28927;BME280;16038;47.692;9.400;2023-07-13T11:35:33;96929.00;;;23.88;59.00
28927;BME280;16038;47.692;9.400;2023-07-13T11:37:59;96931.03;;;23.74;59.42
28927;BME280;16038;47.692;9.400;2023-07-13T11:40:26;96926.66;;;23.60;60.66
28927;BME280;16038;47.692;9.400;2023-07-13T11:42:59;96930.25;;;23.74;58.63
28927;BME280;16038;47.692;9.400;2023-07-13T11:45:24;96919.63;;;23.69;59.34
28927;BME280;16038;47.692;9.400;2023-07-13T11:47:50;96921.53;;;23.59;60.63
28927;BME280;16038;47.692;9.400;2023-07-13T11:50:20;96922.53;;;23.39;60.98
28927;BME280;16038;47.692;9.400;2023-07-13T11:52:46;96915.03;;;23.23;63.43
28927;BME280;16038;47.692;9.400;2023-07-13T11:55:17;96921.28;;;23.15;63.03
28927;BME280;16038;47.692;9.400;2023-07-13T11:57:50;96913.47;;;23.09;65.42
28927;BME280;16038;47.692;9.400;2023-07-13T12:00:20;96917.84;;;23.49;63.61
28927;BME280;16038;47.692;9.400;2023-07-13T12:02:51;96920.53;;;23.53;61.30
28927;BME280;16038;47.692;9.400;2023-07-13T12:05:19;96924.56;;;23.64;61.66
28927;BME280;16038;47.692;9.400;2023-07-13T12:07:46;96927.25;;;23.81;59.30
28927;BME280;16038;47.692;9.400;2023-07-13T12:12:40;96910.81;;;22.89;63.98
28927;BME280;16038;47.692;9.400;2023-07-13T12:15:11;96903.00;;;22.84;64.82
28927;BME280;16038;47.692;9.400;2023-07-13T12:17:37;96903.88;;;23.23;59.89
28927;BME280;16038;47.692;9.400;2023-07-13T12:20:17;96905.88;;;23.48;61.63
28927;BME280;16038;47.692;9.400;2023-07-13T12:22:48;96899.59;;;23.06;62.55
28927;BME280;16038;47.692;9.400;2023-07-13T12:25:15;96899.00;;;22.98;64.49
28927;BME280;16038;47.692;9.400;2023-07-13T12:27:41;96891.50;;;22.95;61.65
28927;BME280;16038;47.692;9.400;2023-07-13T12:30:32;96902.38;;;23.06;63.56
28927;BME280;16038;47.692;9.400;2023-07-13T12:33:10;96899.16;;;23.20;66.23
28927;BME280;16038;47.692;9.400;2023-07-13T12:35:54;96893.47;;;23.37;64.86
28927;BME280;16038;47.692;9.400;2023-07-13T12:38:21;96899.59;;;23.19;64.21
28927;BME280;16038;47.692;9.400;2023-07-13T12:40:50;96891.50;;;22.95;64.89
28927;BME280;16038;47.692;9.400;2023-07-13T12:43:16;96895.59;;;23.45;63.11
28927;BME280;16038;47.692;9.400;2023-07-13T12:48:23;96897.31;;;24.03;61.73
28927;BME280;16038;47.692;9.400;2023-07-13T12:50:49;96893.53;;;24.32;60.19
28927;BME280;16038;47.692;9.400;2023-07-13T12:53:19;96889.44;;;24.24;60.79
28927;BME280;16038;47.692;9.400;2023-07-13T12:55:57;96896.00;;;23.95;63.14
28927;BME280;16038;47.692;9.400;2023-07-13T12:58:39;96884.38;;;23.71;63.60
28927;BME280;16038;47.692;9.400;2023-07-13T13:01:06;96887.41;;;23.64;65.07
28927;BME280;16038;47.692;9.400;2023-07-13T13:03:38;96882.28;;;23.62;64.03
28927;BME280;16038;47.692;9.400;2023-07-13T13:06:17;96890.00;;;23.45;66.89
28927;BME280;16038;47.692;9.400;2023-07-13T13:08:46;96884.41;;;23.20;66.25
28927;BME280;16038;47.692;9.400;2023-07-13T13:11:14;96886.41;;;23.06;69.84
28927;BME280;16038;47.692;9.400;2023-07-13T13:13:42;96880.00;;;22.93;69.78
28927;BME280;16038;47.692;9.400;2023-07-13T13:16:22;96880.72;;;23.10;68.63
28927;BME280;16038;47.692;9.400;2023-07-13T13:18:49;96882.50;;;23.17;68.79
28927;BME280;16038;47.692;9.400;2023-07-13T13:21:16;96875.41;;;22.99;71.12
28927;BME280;16038;47.692;9.400;2023-07-13T13:23:41;96872.91;;;23.05;69.92
28927;BME280;16038;47.692;9.400;2023-07-13T13:26:11;96881.19;;;22.66;69.43
28927;BME280;16038;47.692;9.400;2023-07-13T13:28:36;96876.03;;;23.07;69.96
28927;BME280;16038;47.692;9.400;2023-07-13T13:31:02;96873.69;;;23.18;68.21